sensor_id;sensor_type;location;lat;lon;timestamp;pressure;altitude;pressure_sealevel;temperature;humidity
36192;BME280;22233;42.708;23.360;2022-09-03T00:01:09;95392.63;;;17.65;78.09
36192;BME280;22233;42.708;23.360;2022-09-03T00:03:41;95381.34;;;17.35;79.27
36192;BME280;22233;42.708;23.360;2022-09-03T00:06:15;95390.13;;;17.60;78.54
36192;BME280;22233;42.708;23.360;2022-09-03T00:08:44;95403.53;;;17.62;78.91
36192;BME280;22233;42.708;23.360;2022-09-03T00:14:13;95399.22;;;17.45;79.55
36192;BME280;22233;42.708;23.360;2022-09-03T00:16:47;95406.09;;;17.54;78.75
36192;BME280;22233;42.708;23.360;2022-09-03T00:19:21;95377.44;;;17.36;78.63
36192;BME280;22233;42.708;23.360;2022-09-03T00:21:53;95403.72;;;17.53;78.92
36192;BME280;22233;42.708;23.360;2022-09-03T00:24:25;95392.81;;;17.56;78.64
36192;BME280;22233;42.708;23.360;2022-09-03T00:26:56;95390.66;;;17.66;78.17
36192;BME280;22233;42.708;23.360;2022-09-03T00:29:27;95380.31;;;17.24;79.37
36192;BME280;22233;42.708;23.360;2022-09-03T00:32:00;95389.16;;;17.33;78.81
36192;BME280;22233;42.708;23.360;2022-09-03T00:36:53;95394.66;;;17.17;80.10
36192;BME280;22233;42.708;23.360;2022-09-03T00:39:20;95384.94;;;17.55;79.29
36192;BME280;22233;42.708;23.360;2022-09-03T00:50:12;95391.16;;;17.87;77.86
36192;BME280;22233;42.708;23.360;2022-09-03T00:53:04;95393.94;;;17.71;78.53
36192;BME280;22233;42.708;23.360;2022-09-03T01:01:17;95402.69;;;17.77;77.53
36192;BME280;22233;42.708;23.360;2022-09-03T01:06:26;95398.78;;;17.78;77.29
36192;BME280;22233;42.708;23.360;2022-09-03T01:09:27;95394.56;;;17.65;77.03
36192;BME280;22233;42.708;23.360;2022-09-03T01:15:03;95394.34;;;17.38;78.31
36192;BME280;22233;42.708;23.360;2022-09-03T01:32:33;95406.94;;;17.39;78.25
36192;BME280;22233;42.708;23.360;2022-09-03T01:40:22;95416.16;;;17.31;78.85
36192;BME280;22233;42.708;23.360;2022-09-03T01:43:28;95426.44;;;17.18;78.63
36192;BME280;22233;42.708;23.360;2022-09-03T01:46:18;95421.56;;;17.43;78.19
36192;BME280;22233;42.708;23.360;2022-09-03T01:51:35;95422.69;;;17.26;78.78
36192;BME280;22233;42.708;23.360;2022-09-03T02:00:11;95415.41;;;17.50;77.74
36192;BME280;22233;42.708;23.360;2022-09-03T02:02:39;95408.28;;;17.13;78.11
36192;BME280;22233;42.708;23.360;2022-09-03T02:05:15;95408.09;;;17.06;78.48
36192;BME280;22233;42.708;23.360;2022-09-03T02:07:47;95414.03;;;17.24;78.25
36192;BME280;22233;42.708;23.360;2022-09-03T02:10:16;95392.50;;;17.26;78.54
36192;BME280;22233;42.708;23.360;2022-09-03T02:12:54;95414.94;;;17.12;79.12
36192;BME280;22233;42.708;23.360;2022-09-03T02:15:22;95415.72;;;17.29;77.94
36192;BME280;22233;42.708;23.360;2022-09-03T02:17:52;95424.22;;;17.24;78.58
36192;BME280;22233;42.708;23.360;2022-09-03T02:20:22;95425.63;;;17.17;78.66
36192;BME280;22233;42.708;23.360;2022-09-03T02:22:51;95422.00;;;17.45;76.90
36192;BME280;22233;42.708;23.360;2022-09-03T02:25:18;95428.59;;;17.60;76.76
36192;BME280;22233;42.708;23.360;2022-09-03T02:27:44;95435.53;;;17.06;79.31
36192;BME280;22233;42.708;23.360;2022-09-03T02:30:10;95418.03;;;16.95;78.95
36192;BME280;22233;42.708;23.360;2022-09-03T02:32:36;95421.38;;;17.04;78.28
36192;BME280;22233;42.708;23.360;2022-09-03T02:35:02;95428.72;;;17.00;80.37
36192;BME280;22233;42.708;23.360;2022-09-03T02:37:28;95416.72;;;17.05;78.95
36192;BME280;22233;42.708;23.360;2022-09-03T02:39:54;95414.22;;;17.31;77.78
36192;BME280;22233;42.708;23.360;2022-09-03T02:42:19;95413.78;;;17.13;78.56
36192;BME280;22233;42.708;23.360;2022-09-03T02:45:19;95429.75;;;17.59;76.61
36192;BME280;22233;42.708;23.360;2022-09-03T02:47:51;95430.03;;;17.38;77.90
36192;BME280;22233;42.708;23.360;2022-09-03T02:50:18;95425.81;;;17.25;77.90
36192;BME280;22233;42.708;23.360;2022-09-03T02:52:44;95418.53;;;17.32;77.69
36192;BME280;22233;42.708;23.360;2022-09-03T02:55:09;95442.66;;;17.23;79.02
36192;BME280;22233;42.708;23.360;2022-09-03T02:57:35;95435.19;;;17.24;78.07
36192;BME280;22233;42.708;23.360;2022-09-03T03:00:00;95427.59;;;17.33;78.03
36192;BME280;22233;42.708;23.360;2022-09-03T03:02:26;95425.09;;;17.28;77.97
36192;BME280;22233;42.708;23.360;2022-09-03T03:04:52;95429.50;;;17.48;77.23
36192;BME280;22233;42.708;23.360;2022-09-03T03:07:19;95430.22;;;17.45;77.29
36192;BME280;22233;42.708;23.360;2022-09-03T03:09:45;95428.66;;;17.12;78.43
36192;BME280;22233;42.708;23.360;2022-09-03T03:12:11;95441.03;;;17.38;76.92
36192;BME280;22233;42.708;23.360;2022-09-03T03:14:36;95438.03;;;17.43;77.15
36192;BME280;22233;42.708;23.360;2022-09-03T03:17:02;95435.03;;;17.16;78.32
36192;BME280;22233;42.708;23.360;2022-09-03T03:19:28;95422.25;;;17.40;77.36
36192;BME280;22233;42.708;23.360;2022-09-03T03:21:53;95434.56;;;17.46;76.86
36192;BME280;22233;42.708;23.360;2022-09-03T03:24:18;95425.72;;;17.21;77.08
36192;BME280;22233;42.708;23.360;2022-09-03T03:26:44;95430.44;;;17.21;77.87
36192;BME280;22233;42.708;23.360;2022-09-03T03:29:16;95423.69;;;17.34;77.84
36192;BME280;22233;42.708;23.360;2022-09-03T03:31:45;95421.66;;;17.31;77.32
36192;BME280;22233;42.708;23.360;2022-09-03T03:34:11;95429.91;;;16.99;78.47
36192;BME280;22233;42.708;23.360;2022-09-03T03:36:36;95419.06;;;17.38;76.81
36192;BME280;22233;42.708;23.360;2022-09-03T03:39:02;95418.38;;;17.41;76.38
36192;BME280;22233;42.708;23.360;2022-09-03T03:41:32;95417.38;;;17.49;76.13
36192;BME280;22233;42.708;23.360;2022-09-03T03:44:04;95426.19;;;17.07;78.60
36192;BME280;22233;42.708;23.360;2022-09-03T03:46:35;95421.03;;;17.06;78.06
36192;BME280;22233;42.708;23.360;2022-09-03T03:49:02;95443.00;;;17.22;77.93
36192;BME280;22233;42.708;23.360;2022-09-03T03:51:28;95426.13;;;16.75;78.78
36192;BME280;22233;42.708;23.360;2022-09-03T03:53:57;95425.91;;;16.96;78.07
36192;BME280;22233;42.708;23.360;2022-09-03T03:56:24;95435.84;;;17.17;78.08
36192;BME280;22233;42.708;23.360;2022-09-03T03:58:51;95444.31;;;17.12;77.78
36192;BME280;22233;42.708;23.360;2022-09-03T04:01:18;95439.25;;;17.30;77.65
36192;BME280;22233;42.708;23.360;2022-09-03T04:03:45;95444.75;;;17.30;77.47
36192;BME280;22233;42.708;23.360;2022-09-03T04:06:13;95427.41;;;16.94;77.99
36192;BME280;22233;42.708;23.360;2022-09-03T04:08:40;95440.50;;;16.85;78.80
36192;BME280;22233;42.708;23.360;2022-09-03T04:11:07;95439.22;;;17.10;77.88
36192;BME280;22233;42.708;23.360;2022-09-03T04:13:39;95426.97;;;17.08;77.70
36192;BME280;22233;42.708;23.360;2022-09-03T04:16:08;95423.34;;;17.20;77.88
36192;BME280;22233;42.708;23.360;2022-09-03T04:18:34;95432.28;;;17.16;77.27
36192;BME280;22233;42.708;23.360;2022-09-03T04:21:11;95445.47;;;17.27;76.92
36192;BME280;22233;42.708;23.360;2022-09-03T04:23:39;95431.56;;;17.20;76.74
36192;BME280;22233;42.708;23.360;2022-09-03T04:26:06;95434.50;;;17.11;78.13
36192;BME280;22233;42.708;23.360;2022-09-03T04:28:32;95444.16;;;17.05;78.42
36192;BME280;22233;42.708;23.360;2022-09-03T04:31:02;95429.38;;;17.09;77.99
36192;BME280;22233;42.708;23.360;2022-09-03T04:33:29;95438.66;;;17.21;78.24
36192;BME280;22233;42.708;23.360;2022-09-03T04:36:23;95443.84;;;17.57;76.02
36192;BME280;22233;42.708;23.360;2022-09-03T04:38:52;95457.50;;;17.38;77.11
36192;BME280;22233;42.708;23.360;2022-09-03T04:41:29;95455.72;;;17.62;75.61
36192;BME280;22233;42.708;23.360;2022-09-03T04:43:57;95471.56;;;17.68;75.15
36192;BME280;22233;42.708;23.360;2022-09-03T04:46:26;95477.56;;;17.74;75.20
36192;BME280;22233;42.708;23.360;2022-09-03T04:48:55;95474.13;;;17.77;75.20
36192;BME280;22233;42.708;23.360;2022-09-03T04:51:24;95476.72;;;17.22;76.94
36192;BME280;22233;42.708;23.360;2022-09-03T04:53:59;95467.69;;;17.53;75.40
36192;BME280;22233;42.708;23.360;2022-09-03T04:56:35;95460.78;;;17.12;76.10
36192;BME280;22233;42.708;23.360;2022-09-03T04:59:06;95483.63;;;17.32;76.43
36192;BME280;22233;42.708;23.360;2022-09-03T05:01:34;95483.72;;;17.35;75.81
36192;BME280;22233;42.708;23.360;2022-09-03T05:04:00;95492.06;;;17.39;76.37
36192;BME280;22233;42.708;23.360;2022-09-03T05:06:27;95495.88;;;17.19;76.66
36192;BME280;22233;42.708;23.360;2022-09-03T05:08:54;95488.31;;;17.15;76.60
36192;BME280;22233;42.708;23.360;2022-09-03T05:11:21;95487.53;;;17.15;76.76
36192;BME280;22233;42.708;23.360;2022-09-03T05:13:48;95501.44;;;17.22;76.50
36192;BME280;22233;42.708;23.360;2022-09-03T05:16:14;95507.81;;;17.10;76.13
36192;BME280;22233;42.708;23.360;2022-09-03T05:18:40;95507.44;;;17.12;76.03
36192;BME280;22233;42.708;23.360;2022-09-03T05:21:12;95499.94;;;17.09;77.93
36192;BME280;22233;42.708;23.360;2022-09-03T05:23:40;95492.66;;;17.01;76.26
36192;BME280;22233;42.708;23.360;2022-09-03T05:26:12;95498.28;;;16.92;76.97
36192;BME280;22233;42.708;23.360;2022-09-03T05:28:39;95501.88;;;16.80;77.60
36192;BME280;22233;42.708;23.360;2022-09-03T05:31:07;95517.53;;;16.80;77.71
36192;BME280;22233;42.708;23.360;2022-09-03T05:33:41;95497.75;;;16.58;77.88
36192;BME280;22233;42.708;23.360;2022-09-03T05:36:09;95485.47;;;16.96;76.80
36192;BME280;22233;42.708;23.360;2022-09-03T05:38:35;95506.00;;;16.86;76.91
36192;BME280;22233;42.708;23.360;2022-09-03T05:41:03;95511.69;;;17.09;76.62
36192;BME280;22233;42.708;23.360;2022-09-03T05:43:30;95505.53;;;17.12;76.76
36192;BME280;22233;42.708;23.360;2022-09-03T05:46:09;95508.94;;;16.93;76.94
36192;BME280;22233;42.708;23.360;2022-09-03T05:48:36;95516.28;;;17.05;77.86
36192;BME280;22233;42.708;23.360;2022-09-03T05:51:07;95517.38;;;17.16;76.53
36192;BME280;22233;42.708;23.360;2022-09-03T05:53:35;95524.81;;;17.48;75.94
36192;BME280;22233;42.708;23.360;2022-09-03T05:56:04;95513.03;;;17.31;76.01
36192;BME280;22233;42.708;23.360;2022-09-03T05:58:34;95517.72;;;17.15;76.70
36192;BME280;22233;42.708;23.360;2022-09-03T06:01:18;95524.72;;;17.44;75.33
36192;BME280;22233;42.708;23.360;2022-09-03T06:03:45;95519.69;;;17.62;74.83
36192;BME280;22233;42.708;23.360;2022-09-03T06:06:11;95520.94;;;17.65;75.15
36192;BME280;22233;42.708;23.360;2022-09-03T06:08:41;95529.63;;;17.67;75.36
36192;BME280;22233;42.708;23.360;2022-09-03T06:11:09;95529.88;;;17.62;75.43
36192;BME280;22233;42.708;23.360;2022-09-03T06:13:34;95530.56;;;17.90;74.09
36192;BME280;22233;42.708;23.360;2022-09-03T06:16:03;95530.50;;;17.71;75.27
36192;BME280;22233;42.708;23.360;2022-09-03T06:18:29;95531.00;;;17.92;73.94
36192;BME280;22233;42.708;23.360;2022-09-03T06:21:03;95532.38;;;17.67;74.53
36192;BME280;22233;42.708;23.360;2022-09-03T06:23:30;95509.75;;;17.89;73.76
36192;BME280;22233;42.708;23.360;2022-09-03T06:26:14;95519.53;;;17.87;74.19
36192;BME280;22233;42.708;23.360;2022-09-03T06:28:41;95522.78;;;17.92;73.58
36192;BME280;22233;42.708;23.360;2022-09-03T06:31:14;95525.97;;;17.94;73.97
36192;BME280;22233;42.708;23.360;2022-09-03T06:33:41;95527.97;;;18.33;72.34
36192;BME280;22233;42.708;23.360;2022-09-03T06:36:09;95538.63;;;18.34;72.13
36192;BME280;22233;42.708;23.360;2022-09-03T06:38:36;95534.59;;;18.48;71.53
36192;BME280;22233;42.708;23.360;2022-09-03T06:41:03;95534.25;;;18.49;72.38
36192;BME280;22233;42.708;23.360;2022-09-03T06:43:30;95525.31;;;18.17;73.27
36192;BME280;22233;42.708;23.360;2022-09-03T06:45:58;95529.53;;;18.50;72.14
36192;BME280;22233;42.708;23.360;2022-09-03T06:48:25;95529.47;;;18.66;71.32
36192;BME280;22233;42.708;23.360;2022-09-03T06:51:17;95522.81;;;18.47;71.24
36192;BME280;22233;42.708;23.360;2022-09-03T06:53:44;95518.09;;;18.67;70.79
36192;BME280;22233;42.708;23.360;2022-09-03T06:56:14;95538.88;;;18.45;71.70
36192;BME280;22233;42.708;23.360;2022-09-03T06:58:46;95532.06;;;18.59;71.20
36192;BME280;22233;42.708;23.360;2022-09-03T07:01:19;95521.56;;;18.45;71.31
36192;BME280;22233;42.708;23.360;2022-09-03T07:03:47;95527.16;;;18.68;71.31
36192;BME280;22233;42.708;23.360;2022-09-03T07:06:15;95529.13;;;18.67;70.92
36192;BME280;22233;42.708;23.360;2022-09-03T07:08:41;95538.44;;;18.63;71.32
36192;BME280;22233;42.708;23.360;2022-09-03T07:11:10;95537.38;;;18.67;70.99
36192;BME280;22233;42.708;23.360;2022-09-03T07:13:43;95539.25;;;19.02;70.91
36192;BME280;22233;42.708;23.360;2022-09-03T07:16:12;95546.13;;;18.92;69.93
36192;BME280;22233;42.708;23.360;2022-09-03T07:18:38;95540.34;;;18.98;70.25
36192;BME280;22233;42.708;23.360;2022-09-03T07:21:10;95542.59;;;18.92;70.18
36192;BME280;22233;42.708;23.360;2022-09-03T07:23:46;95555.69;;;19.18;69.69
36192;BME280;22233;42.708;23.360;2022-09-03T07:26:22;95545.25;;;19.08;69.86
36192;BME280;22233;42.708;23.360;2022-09-03T07:28:58;95550.72;;;19.27;68.71
36192;BME280;22233;42.708;23.360;2022-09-03T07:31:31;95557.50;;;19.33;69.09
36192;BME280;22233;42.708;23.360;2022-09-03T07:33:59;95549.38;;;19.18;69.82
36192;BME280;22233;42.708;23.360;2022-09-03T07:36:27;95574.34;;;19.71;67.50
36192;BME280;22233;42.708;23.360;2022-09-03T07:38:57;95572.59;;;19.63;67.16
36192;BME280;22233;42.708;23.360;2022-09-03T07:41:24;95558.88;;;19.43;68.27
36192;BME280;22233;42.708;23.360;2022-09-03T07:43:51;95565.63;;;19.69;67.45
36192;BME280;22233;42.708;23.360;2022-09-03T07:46:19;95560.84;;;19.43;68.57
36192;BME280;22233;42.708;23.360;2022-09-03T07:48:54;95560.78;;;19.85;67.13
36192;BME280;22233;42.708;23.360;2022-09-03T07:51:23;95567.59;;;19.91;66.39
36192;BME280;22233;42.708;23.360;2022-09-03T07:53:54;95569.00;;;20.05;66.86
36192;BME280;22233;42.708;23.360;2022-09-03T07:56:20;95572.44;;;19.98;66.77
36192;BME280;22233;42.708;23.360;2022-09-03T07:58:46;95578.59;;;19.68;68.21
36192;BME280;22233;42.708;23.360;2022-09-03T08:01:17;95582.44;;;20.10;66.64
36192;BME280;22233;42.708;23.360;2022-09-03T08:03:45;95560.72;;;20.31;66.63
36192;BME280;22233;42.708;23.360;2022-09-03T08:06:12;95553.50;;;20.23;66.12
36192;BME280;22233;42.708;23.360;2022-09-03T08:08:38;95576.91;;;20.60;64.44
36192;BME280;22233;42.708;23.360;2022-09-03T08:13:37;95579.78;;;20.44;65.69
36192;BME280;22233;42.708;23.360;2022-09-03T08:16:03;95587.59;;;20.38;65.20
36192;BME280;22233;42.708;23.360;2022-09-03T08:18:30;95581.47;;;20.48;64.46
36192;BME280;22233;42.708;23.360;2022-09-03T08:20:59;95588.72;;;20.60;64.63
36192;BME280;22233;42.708;23.360;2022-09-03T08:23:25;95574.03;;;20.52;65.02
36192;BME280;22233;42.708;23.360;2022-09-03T08:25:58;95582.97;;;20.72;64.78
36192;BME280;22233;42.708;23.360;2022-09-03T08:28:24;95578.97;;;21.00;63.15
36192;BME280;22233;42.708;23.360;2022-09-03T08:30:49;95583.66;;;20.96;63.22
36192;BME280;22233;42.708;23.360;2022-09-03T08:33:14;95578.91;;;20.93;64.13
36192;BME280;22233;42.708;23.360;2022-09-03T08:35:40;95572.09;;;21.21;62.99
36192;BME280;22233;42.708;23.360;2022-09-03T08:38:05;95579.16;;;20.81;63.34
36192;BME280;22233;42.708;23.360;2022-09-03T08:40:36;95577.25;;;20.88;63.86
36192;BME280;22233;42.708;23.360;2022-09-03T08:43:08;95570.88;;;20.81;63.38
36192;BME280;22233;42.708;23.360;2022-09-03T08:45:41;95570.63;;;20.63;63.05
36192;BME280;22233;42.708;23.360;2022-09-03T08:48:17;95569.53;;;21.01;62.58
36192;BME280;22233;42.708;23.360;2022-09-03T08:50:47;95566.16;;;21.19;62.54
36192;BME280;22233;42.708;23.360;2022-09-03T08:53:24;95572.75;;;21.07;63.33
36192;BME280;22233;42.708;23.360;2022-09-03T08:55:54;95572.78;;;21.10;62.82
36192;BME280;22233;42.708;23.360;2022-09-03T08:58:25;95574.34;;;21.08;63.00
36192;BME280;22233;42.708;23.360;2022-09-03T09:23:46;95560.56;;;21.45;62.30
36192;BME280;22233;42.708;23.360;2022-09-03T09:26:18;95570.25;;;21.66;61.44
36192;BME280;22233;42.708;23.360;2022-09-03T09:28:52;95577.25;;;22.01;60.30
36192;BME280;22233;42.708;23.360;2022-09-03T09:31:20;95566.44;;;21.81;61.07
36192;BME280;22233;42.708;23.360;2022-09-03T09:33:45;95588.81;;;22.17;61.00
36192;BME280;22233;42.708;23.360;2022-09-03T09:36:13;95576.94;;;22.09;59.60
36192;BME280;22233;42.708;23.360;2022-09-03T09:38:42;95569.88;;;22.16;59.86
36192;BME280;22233;42.708;23.360;2022-09-03T09:43:37;95580.94;;;22.19;60.19
36192;BME280;22233;42.708;23.360;2022-09-03T09:46:12;95568.63;;;22.13;59.52
36192;BME280;22233;42.708;23.360;2022-09-03T09:48:51;95578.03;;;22.01;59.76
36192;BME280;22233;42.708;23.360;2022-09-03T09:51:29;95575.06;;;21.76;60.48
36192;BME280;22233;42.708;23.360;2022-09-03T09:54:13;95573.59;;;21.89;60.40
36192;BME280;22233;42.708;23.360;2022-09-03T09:56:41;95570.59;;;22.09;60.00
36192;BME280;22233;42.708;23.360;2022-09-03T09:59:08;95577.69;;;22.06;59.66
36192;BME280;22233;42.708;23.360;2022-09-03T10:01:42;95579.25;;;22.04;60.36
36192;BME280;22233;42.708;23.360;2022-09-03T10:04:11;95562.38;;;22.20;59.42
36192;BME280;22233;42.708;23.360;2022-09-03T10:06:37;95568.09;;;22.45;58.79
36192;BME280;22233;42.708;23.360;2022-09-03T10:09:29;95578.19;;;22.78;57.16
36192;BME280;22233;42.708;23.360;2022-09-03T10:12:21;95585.28;;;22.79;56.84
36192;BME280;22233;42.708;23.360;2022-09-03T10:15:11;95570.19;;;22.62;58.67
36192;BME280;22233;42.708;23.360;2022-09-03T10:18:13;95553.66;;;22.84;56.60
36192;BME280;22233;42.708;23.360;2022-09-03T10:23:34;95569.41;;;22.69;57.16
36192;BME280;22233;42.708;23.360;2022-09-03T10:26:12;95579.81;;;22.90;57.86
36192;BME280;22233;42.708;23.360;2022-09-03T10:28:41;95574.69;;;22.96;57.04
36192;BME280;22233;42.708;23.360;2022-09-03T10:33:48;95570.78;;;23.04;56.38
36192;BME280;22233;42.708;23.360;2022-09-03T10:36:24;95565.34;;;23.29;55.22
36192;BME280;22233;42.708;23.360;2022-09-03T10:39:10;95568.94;;;23.40;55.41
36192;BME280;22233;42.708;23.360;2022-09-03T10:47:26;95571.72;;;23.51;54.96
36192;BME280;22233;42.708;23.360;2022-09-03T10:52:31;95569.75;;;23.59;54.17
36192;BME280;22233;42.708;23.360;2022-09-03T10:55:05;95577.66;;;23.42;54.22
36192;BME280;22233;42.708;23.360;2022-09-03T11:00:20;95577.25;;;23.37;53.85
36192;BME280;22233;42.708;23.360;2022-09-03T11:05:36;95568.22;;;24.08;53.05
36192;BME280;22233;42.708;23.360;2022-09-03T11:08:21;95576.53;;;24.37;52.77
36192;BME280;22233;42.708;23.360;2022-09-03T11:10:54;95558.69;;;24.45;52.29
36192;BME280;22233;42.708;23.360;2022-09-03T11:13:35;95553.56;;;23.89;53.11
36192;BME280;22233;42.708;23.360;2022-09-03T11:16:22;95558.28;;;24.50;51.38
36192;BME280;22233;42.708;23.360;2022-09-03T11:18:54;95574.56;;;24.23;52.46
36192;BME280;22233;42.708;23.360;2022-09-03T11:21:26;95580.50;;;24.00;53.59
36192;BME280;22233;42.708;23.360;2022-09-03T11:26:35;95580.09;;;24.26;52.82
36192;BME280;22233;42.708;23.360;2022-09-03T11:34:27;95578.50;;;24.50;53.25
36192;BME280;22233;42.708;23.360;2022-09-03T11:37:16;95574.81;;;24.93;52.67
36192;BME280;22233;42.708;23.360;2022-09-03T11:42:34;95573.31;;;24.74;51.81
36192;BME280;22233;42.708;23.360;2022-09-03T11:47:51;95572.03;;;24.93;51.59
36192;BME280;22233;42.708;23.360;2022-09-03T11:50:26;95560.34;;;25.41;51.37
36192;BME280;22233;42.708;23.360;2022-09-03T11:53:08;95574.31;;;25.27;50.67
36192;BME280;22233;42.708;23.360;2022-09-03T11:55:51;95574.22;;;25.41;50.11
36192;BME280;22233;42.708;23.360;2022-09-03T11:58:24;95572.06;;;25.74;49.59
36192;BME280;22233;42.708;23.360;2022-09-03T12:00:50;95538.91;;;25.98;49.73
36192;BME280;22233;42.708;23.360;2022-09-03T12:03:24;95552.75;;;26.50;48.25
36192;BME280;22233;42.708;23.360;2022-09-03T12:06:03;95563.09;;;26.49;47.98
36192;BME280;22233;42.708;23.360;2022-09-03T12:19:51;95532.47;;;26.08;48.20
36192;BME280;22233;42.708;23.360;2022-09-03T12:22:20;95535.00;;;26.37;48.37
36192;BME280;22233;42.708;23.360;2022-09-03T12:24:46;95556.34;;;25.49;49.49
36192;BME280;22233;42.708;23.360;2022-09-03T12:27:20;95543.16;;;25.57;49.76
36192;BME280;22233;42.708;23.360;2022-09-03T12:30:00;95539.44;;;25.78;48.90
36192;BME280;22233;42.708;23.360;2022-09-03T12:32:31;95534.75;;;26.20;48.56
36192;BME280;22233;42.708;23.360;2022-09-03T12:35:17;95532.56;;;26.80;48.79
36192;BME280;22233;42.708;23.360;2022-09-03T12:37:44;95546.13;;;27.13;46.80
36192;BME280;22233;42.708;23.360;2022-09-03T12:40:21;95551.03;;;26.67;47.22
36192;BME280;22233;42.708;23.360;2022-09-03T12:42:48;95550.69;;;27.30;47.82
36192;BME280;22233;42.708;23.360;2022-09-03T12:45:17;95539.81;;;27.66;45.47
36192;BME280;22233;42.708;23.360;2022-09-03T12:47:43;95531.69;;;27.18;46.08
36192;BME280;22233;42.708;23.360;2022-09-03T12:50:18;95542.13;;;27.44;46.83
36192;BME280;22233;42.708;23.360;2022-09-03T12:53:04;95537.63;;;27.20;47.15
36192;BME280;22233;42.708;23.360;2022-09-03T13:05:56;95519.63;;;27.82;45.68
36192;BME280;22233;42.708;23.360;2022-09-03T13:08:28;95518.47;;;27.53;44.48
36192;BME280;22233;42.708;23.360;2022-09-03T13:10:56;95514.03;;;28.09;44.03
36192;BME280;22233;42.708;23.360;2022-09-03T13:13:26;95510.41;;;27.85;43.32
36192;BME280;22233;42.708;23.360;2022-09-03T13:18:29;95502.81;;;27.89;43.55
36192;BME280;22233;42.708;23.360;2022-09-03T13:23:54;95502.00;;;27.62;44.60
36192;BME280;22233;42.708;23.360;2022-09-03T13:31:50;95498.31;;;27.96;44.31
36192;BME280;22233;42.708;23.360;2022-09-03T13:37:02;95493.00;;;27.23;44.16
36192;BME280;22233;42.708;23.360;2022-09-03T13:39:40;95502.91;;;26.97;45.22
36192;BME280;22233;42.708;23.360;2022-09-03T13:42:17;95496.94;;;26.64;46.08
36192;BME280;22233;42.708;23.360;2022-09-03T13:44:59;95495.41;;;27.21;45.47
36192;BME280;22233;42.708;23.360;2022-09-03T13:47:48;95475.75;;;27.32;43.71
36192;BME280;22233;42.708;23.360;2022-09-03T13:50:44;95460.47;;;27.67;43.11
36192;BME280;22233;42.708;23.360;2022-09-03T13:53:17;95495.84;;;28.45;42.16
36192;BME280;22233;42.708;23.360;2022-09-03T13:55:48;95466.78;;;28.62;42.62
36192;BME280;22233;42.708;23.360;2022-09-03T13:58:29;95482.31;;;28.83;42.74
36192;BME280;22233;42.708;23.360;2022-09-03T14:05:59;95496.97;;;27.77;42.99
36192;BME280;22233;42.708;23.360;2022-09-03T14:19:36;95498.06;;;27.32;43.55
36192;BME280;22233;42.708;23.360;2022-09-03T14:25:17;95492.69;;;26.87;44.76
36192;BME280;22233;42.708;23.360;2022-09-03T14:27:43;95499.38;;;27.24;45.45
36192;BME280;22233;42.708;23.360;2022-09-03T14:40:50;95498.13;;;28.94;46.84
36192;BME280;22233;42.708;23.360;2022-09-03T14:55:12;95508.88;;;28.32;47.85
36192;BME280;22233;42.708;23.360;2022-09-03T14:57:52;95505.59;;;28.13;48.39
36192;BME280;22233;42.708;23.360;2022-09-03T15:06:03;95505.09;;;28.18;48.58
36192;BME280;22233;42.708;23.360;2022-09-03T15:11:21;95515.66;;;28.54;47.42
36192;BME280;22233;42.708;23.360;2022-09-03T15:16:45;95512.47;;;28.76;47.34
36192;BME280;22233;42.708;23.360;2022-09-03T15:19:35;95524.50;;;29.13;46.48
36192;BME280;22233;42.708;23.360;2022-09-03T15:24:53;95519.03;;;29.05;45.35
36192;BME280;22233;42.708;23.360;2022-09-03T15:30:04;95519.19;;;28.98;46.05
36192;BME280;22233;42.708;23.360;2022-09-03T15:35:10;95530.59;;;28.67;46.97
36192;BME280;22233;42.708;23.360;2022-09-03T15:37:46;95520.91;;;28.48;47.12
36192;BME280;22233;42.708;23.360;2022-09-03T15:40:26;95531.22;;;27.81;48.24
36192;BME280;22233;42.708;23.360;2022-09-03T15:43:09;95526.16;;;27.72;48.28
36192;BME280;22233;42.708;23.360;2022-09-03T15:48:35;95540.16;;;27.10;49.69
36192;BME280;22233;42.708;23.360;2022-09-03T15:53:57;95545.84;;;26.65;50.84
36192;BME280;22233;42.708;23.360;2022-09-03T15:56:33;95545.81;;;26.27;51.81
36192;BME280;22233;42.708;23.360;2022-09-03T15:59:24;95557.88;;;26.14;52.17
36192;BME280;22233;42.708;23.360;2022-09-03T16:01:58;95560.84;;;25.88;52.59
36192;BME280;22233;42.708;23.360;2022-09-03T16:05:02;95547.13;;;25.60;53.54
36192;BME280;22233;42.708;23.360;2022-09-03T16:10:09;95558.97;;;25.67;53.22
36192;BME280;22233;42.708;23.360;2022-09-03T16:15:47;95564.63;;;25.53;53.48
36192;BME280;22233;42.708;23.360;2022-09-03T16:18:31;95569.19;;;25.22;53.63
36192;BME280;22233;42.708;23.360;2022-09-03T16:24:12;95580.88;;;24.30;55.90
36192;BME280;22233;42.708;23.360;2022-09-03T16:26:57;95566.25;;;24.23;56.42
36192;BME280;22233;42.708;23.360;2022-09-03T16:29:26;95581.69;;;24.31;56.80
36192;BME280;22233;42.708;23.360;2022-09-03T16:37:30;95585.69;;;24.05;57.32
36192;BME280;22233;42.708;23.360;2022-09-03T16:40:21;95603.13;;;23.95;57.69
36192;BME280;22233;42.708;23.360;2022-09-03T16:42:59;95595.94;;;23.86;57.84
36192;BME280;22233;42.708;23.360;2022-09-03T16:45:54;95577.28;;;23.62;58.04
36192;BME280;22233;42.708;23.360;2022-09-03T16:56:53;95595.41;;;23.23;59.83
36192;BME280;22233;42.708;23.360;2022-09-03T17:01:58;95585.47;;;23.11;59.83
36192;BME280;22233;42.708;23.360;2022-09-03T17:04:37;95601.72;;;23.17;59.60
36192;BME280;22233;42.708;23.360;2022-09-03T17:07:45;95600.41;;;23.00;59.64
36192;BME280;22233;42.708;23.360;2022-09-03T17:12:41;95613.75;;;22.80;60.24
36192;BME280;22233;42.708;23.360;2022-09-03T17:18:11;95636.03;;;22.94;60.24
36192;BME280;22233;42.708;23.360;2022-09-03T17:42:18;95657.03;;;21.99;61.57
36192;BME280;22233;42.708;23.360;2022-09-03T17:44:54;95671.72;;;22.06;61.25